createdAt,value
2023-03-23T16:02:02.042Z,39.82
2023-03-23T16:07:07.348Z,39.92
2023-03-23T16:12:13.519Z,39.98
2023-03-23T16:17:20.096Z,40.08
2023-03-23T16:22:23.759Z,40.17
2023-03-23T16:27:27.209Z,40.24
2023-03-23T16:32:31.149Z,40.31
2023-03-23T16:37:35.345Z,40.37
2023-03-23T16:42:38.683Z,40.49
2023-03-23T16:47:43.270Z,40.57
2023-03-23T16:52:48.616Z,40.65
2023-03-23T16:57:58.188Z,41.08
2023-03-23T17:03:12.604Z,40.98
2023-03-23T17:08:17.338Z,40.82
2023-03-23T17:13:20.680Z,40.80
2023-03-23T17:18:25.401Z,40.80
2023-03-23T17:23:29.450Z,40.85
2023-03-23T17:28:33.007Z,41.23
2023-03-23T17:33:36.482Z,41.24
2023-03-23T17:38:39.916Z,41.48
2023-03-23T17:43:43.656Z,42.04
2023-03-23T17:48:47.168Z,42.07
2023-03-23T17:53:50.898Z,41.84
2023-03-23T17:59:00.865Z,41.91
2023-03-23T18:04:04.949Z,42.21
2023-03-23T18:09:08.434Z,42.22
2023-03-23T18:14:12.009Z,42.51
2023-03-23T18:19:16.107Z,42.37
2023-03-23T18:24:20.933Z,42.39
2023-03-23T18:29:24.697Z,43.84
2023-03-23T18:34:28.106Z,44.53
2023-03-23T18:39:34.312Z,44.48
2023-03-23T18:44:38.296Z,44.99
2023-03-23T18:49:42.005Z,45.27
2023-03-23T18:54:45.723Z,45.88
2023-03-23T18:59:49.646Z,46.08
2023-03-23T19:04:53.425Z,46.25
2023-03-23T19:09:58.390Z,46.13
2023-03-23T19:15:02.297Z,45.96
2023-03-23T19:20:16.559Z,45.91
2023-03-23T19:25:30.152Z,45.99
2023-03-23T19:30:34.014Z,45.27
2023-03-23T19:35:37.587Z,44.92
2023-03-23T19:40:52.155Z,44.69
2023-03-23T19:45:55.692Z,44.35
2023-03-23T19:50:59.559Z,44.20
2023-03-23T19:56:04.850Z,43.91
2023-03-23T20:01:10.476Z,43.51
2023-03-23T20:06:15.626Z,43.31
2023-03-23T20:11:21.011Z,43.13
2023-03-23T20:16:26.522Z,42.92
2023-03-23T20:21:29.978Z,42.80
2023-03-23T20:26:39.283Z,42.67
2023-03-23T20:31:43.196Z,42.75
2023-03-23T20:36:47.025Z,42.70
2023-03-23T20:41:54.844Z,42.62
2023-03-23T20:46:58.999Z,42.65
2023-03-23T20:52:03.007Z,42.64
2023-03-23T20:57:07.226Z,42.70
2023-03-23T21:02:15.767Z,42.75
2023-03-23T21:07:23.393Z,42.81
2023-03-23T21:12:27.562Z,42.90
2023-03-23T21:17:31.263Z,43.01
2023-03-23T21:22:35.847Z,43.14
2023-03-23T21:27:39.880Z,43.22
2023-03-23T21:32:43.222Z,43.34
2023-03-23T21:37:48.836Z,43.39
2023-03-23T21:42:53.841Z,43.51
2023-03-23T21:47:58.268Z,43.62
2023-03-23T21:53:02.892Z,43.84
2023-03-23T21:58:06.553Z,45.41
2023-03-23T22:03:10.042Z,45.61
2023-03-23T22:08:14.131Z,45.59
2023-03-23T22:13:18.519Z,45.26
2023-03-23T22:18:22.175Z,45.39
2023-03-23T22:23:25.757Z,46.99
2023-03-23T22:28:31.258Z,47.36
2023-03-23T22:33:37.114Z,47.09
2023-03-23T22:38:43.197Z,46.70
2023-03-23T22:43:47.422Z,46.67
2023-03-23T22:48:51.081Z,46.82
2023-03-23T22:53:55.184Z,46.84
2023-03-23T22:59:00.478Z,46.74
2023-03-23T23:04:06.646Z,46.63
2023-03-23T23:09:10.676Z,46.76
2023-03-23T23:14:13.914Z,46.85
2023-03-23T23:19:25.978Z,46.85
2023-03-23T23:24:29.649Z,46.92
2023-03-23T23:29:33.005Z,46.92
2023-03-23T23:34:36.954Z,46.94
2023-03-23T23:39:41.523Z,46.97
2023-03-23T23:44:46.716Z,47.01
2023-03-23T23:49:51.252Z,47.02
2023-03-23T23:54:55.181Z,47.03
2023-03-23T23:59:58.471Z,46.99
